sensor_id;sensor_type;location;lat;lon;timestamp;temperature;humidity
13848;DHT22;6994;49.752;6.094;2023-03-08T00:02:01;5.00;99.90
13848;DHT22;6994;49.752;6.094;2023-03-08T00:04:28;4.90;99.90
13848;DHT22;6994;49.752;6.094;2023-03-08T00:06:55;4.90;99.90
13848;DHT22;6994;49.752;6.094;2023-03-08T00:09:22;4.90;99.90
13848;DHT22;6994;49.752;6.094;2023-03-08T00:11:49;4.90;99.90
13848;DHT22;6994;49.752;6.094;2023-03-08T00:14:17;4.90;99.90
13848;DHT22;6994;49.752;6.094;2023-03-08T00:16:45;5.20;99.90
13848;DHT22;6994;49.752;6.094;2023-03-08T00:19:12;5.20;99.90
13848;DHT22;6994;49.752;6.094;2023-03-08T00:21:39;5.20;99.90
13848;DHT22;6994;49.752;6.094;2023-03-08T00:24:06;5.10;99.90
13848;DHT22;6994;49.752;6.094;2023-03-08T00:26:33;5.00;99.90
13848;DHT22;6994;49.752;6.094;2023-03-08T00:29:01;5.00;99.90
13848;DHT22;6994;49.752;6.094;2023-03-08T00:31:28;4.90;99.90
13848;DHT22;6994;49.752;6.094;2023-03-08T00:33:55;4.80;99.90
13848;DHT22;6994;49.752;6.094;2023-03-08T00:36:22;4.70;99.90
13848;DHT22;6994;49.752;6.094;2023-03-08T00:38:49;4.70;99.90
13848;DHT22;6994;49.752;6.094;2023-03-08T00:41:17;4.70;99.90
13848;DHT22;6994;49.752;6.094;2023-03-08T00:43:44;4.60;99.90
13848;DHT22;6994;49.752;6.094;2023-03-08T00:46:11;4.60;99.90
13848;DHT22;6994;49.752;6.094;2023-03-08T00:48:38;4.60;99.90
13848;DHT22;6994;49.752;6.094;2023-03-08T00:51:05;4.50;99.90
13848;DHT22;6994;49.752;6.094;2023-03-08T00:53:33;4.50;99.90
13848;DHT22;6994;49.752;6.094;2023-03-08T00:56:00;4.60;99.90
13848;DHT22;6994;49.752;6.094;2023-03-08T00:58:28;4.60;99.90
13848;DHT22;6994;49.752;6.094;2023-03-08T01:00:56;4.50;99.90
13848;DHT22;6994;49.752;6.094;2023-03-08T01:03:24;4.40;99.90
13848;DHT22;6994;49.752;6.094;2023-03-08T01:05:53;4.30;99.90
13848;DHT22;6994;49.752;6.094;2023-03-08T01:08:20;4.20;99.90
13848;DHT22;6994;49.752;6.094;2023-03-08T01:13:16;4.10;99.90
13848;DHT22;6994;49.752;6.094;2023-03-08T01:15:43;4.10;99.90
13848;DHT22;6994;49.752;6.094;2023-03-08T01:18:10;4.10;99.90
13848;DHT22;6994;49.752;6.094;2023-03-08T01:20:38;4.10;99.90
13848;DHT22;6994;49.752;6.094;2023-03-08T01:23:05;4.00;99.90
13848;DHT22;6994;49.752;6.094;2023-03-08T01:25:32;4.00;99.90
13848;DHT22;6994;49.752;6.094;2023-03-08T01:27:59;4.00;99.90
13848;DHT22;6994;49.752;6.094;2023-03-08T01:30:27;4.00;99.90
13848;DHT22;6994;49.752;6.094;2023-03-08T01:32:55;4.00;99.90
13848;DHT22;6994;49.752;6.094;2023-03-08T01:35:23;4.00;99.90
13848;DHT22;6994;49.752;6.094;2023-03-08T01:37:50;4.00;99.90
13848;DHT22;6994;49.752;6.094;2023-03-08T01:40:17;4.00;99.90
13848;DHT22;6994;49.752;6.094;2023-03-08T01:42:45;4.00;99.90
13848;DHT22;6994;49.752;6.094;2023-03-08T01:48:18;4.00;99.90
13848;DHT22;6994;49.752;6.094;2023-03-08T01:50:45;4.00;99.90
13848;DHT22;6994;49.752;6.094;2023-03-08T01:53:12;4.00;99.90
13848;DHT22;6994;49.752;6.094;2023-03-08T01:55:39;4.00;99.90
13848;DHT22;6994;49.752;6.094;2023-03-08T01:58:06;4.00;99.90
13848;DHT22;6994;49.752;6.094;2023-03-08T02:00:33;4.00;99.90
13848;DHT22;6994;49.752;6.094;2023-03-08T02:03:04;4.00;99.90
13848;DHT22;6994;49.752;6.094;2023-03-08T02:05:31;4.00;99.90
13848;DHT22;6994;49.752;6.094;2023-03-08T02:07:58;4.00;99.90
13848;DHT22;6994;49.752;6.094;2023-03-08T02:10:25;3.90;99.90
13848;DHT22;6994;49.752;6.094;2023-03-08T02:12:53;3.80;99.90
13848;DHT22;6994;49.752;6.094;2023-03-08T02:15:21;3.70;99.90
13848;DHT22;6994;49.752;6.094;2023-03-08T02:17:48;3.60;99.90
13848;DHT22;6994;49.752;6.094;2023-03-08T02:22:45;3.50;99.90
13848;DHT22;6994;49.752;6.094;2023-03-08T02:25:17;3.50;99.90
13848;DHT22;6994;49.752;6.094;2023-03-08T02:27:43;3.40;99.90
13848;DHT22;6994;49.752;6.094;2023-03-08T02:30:11;3.30;99.90
13848;DHT22;6994;49.752;6.094;2023-03-08T02:32:38;3.30;99.90
13848;DHT22;6994;49.752;6.094;2023-03-08T02:35:05;3.30;99.90
13848;DHT22;6994;49.752;6.094;2023-03-08T02:37:32;3.30;99.90
13848;DHT22;6994;49.752;6.094;2023-03-08T02:40:00;3.20;99.90
13848;DHT22;6994;49.752;6.094;2023-03-08T02:42:27;3.20;99.90
13848;DHT22;6994;49.752;6.094;2023-03-08T02:44:55;3.20;99.90
13848;DHT22;6994;49.752;6.094;2023-03-08T02:47:23;3.10;99.90
13848;DHT22;6994;49.752;6.094;2023-03-08T02:49:50;3.10;99.90
13848;DHT22;6994;49.752;6.094;2023-03-08T02:52:17;3.10;99.90
13848;DHT22;6994;49.752;6.094;2023-03-08T02:54:44;3.10;99.90
13848;DHT22;6994;49.752;6.094;2023-03-08T02:57:11;3.30;99.90
13848;DHT22;6994;49.752;6.094;2023-03-08T02:59:39;3.30;99.90
13848;DHT22;6994;49.752;6.094;2023-03-08T03:02:06;3.30;99.90
13848;DHT22;6994;49.752;6.094;2023-03-08T03:04:33;3.30;99.90
13848;DHT22;6994;49.752;6.094;2023-03-08T03:07:00;3.20;99.90
13848;DHT22;6994;49.752;6.094;2023-03-08T03:09:27;3.20;99.90
13848;DHT22;6994;49.752;6.094;2023-03-08T03:11:55;3.10;99.90
13848;DHT22;6994;49.752;6.094;2023-03-08T03:14:23;3.10;99.90
13848;DHT22;6994;49.752;6.094;2023-03-08T03:16:50;3.00;99.90
13848;DHT22;6994;49.752;6.094;2023-03-08T03:19:18;3.10;99.90
13848;DHT22;6994;49.752;6.094;2023-03-08T03:21:46;3.50;99.90
13848;DHT22;6994;49.752;6.094;2023-03-08T03:24:13;3.40;99.90
13848;DHT22;6994;49.752;6.094;2023-03-08T03:26:40;3.40;99.90
13848;DHT22;6994;49.752;6.094;2023-03-08T03:29:07;3.30;99.90
13848;DHT22;6994;49.752;6.094;2023-03-08T03:31:34;3.30;99.90
13848;DHT22;6994;49.752;6.094;2023-03-08T03:34:02;3.10;99.90
13848;DHT22;6994;49.752;6.094;2023-03-08T03:36:29;3.00;99.90
13848;DHT22;6994;49.752;6.094;2023-03-08T03:38:57;3.00;99.90
13848;DHT22;6994;49.752;6.094;2023-03-08T03:41:23;2.90;99.90
13848;DHT22;6994;49.752;6.094;2023-03-08T03:43:51;2.80;99.90
13848;DHT22;6994;49.752;6.094;2023-03-08T03:46:18;2.80;99.90
13848;DHT22;6994;49.752;6.094;2023-03-08T03:48:45;2.70;99.90
13848;DHT22;6994;49.752;6.094;2023-03-08T03:51:17;2.70;99.90
13848;DHT22;6994;49.752;6.094;2023-03-08T03:53:40;2.60;99.90
13848;DHT22;6994;49.752;6.094;2023-03-08T03:56:20;2.60;99.90
13848;DHT22;6994;49.752;6.094;2023-03-08T03:58:46;2.60;99.90
13848;DHT22;6994;49.752;6.094;2023-03-08T04:01:20;2.50;99.90
13848;DHT22;6994;49.752;6.094;2023-03-08T04:03:43;2.50;99.90
13848;DHT22;6994;49.752;6.094;2023-03-08T04:06:14;2.50;99.90
13848;DHT22;6994;49.752;6.094;2023-03-08T04:08:41;2.40;99.90
13848;DHT22;6994;49.752;6.094;2023-03-08T04:11:08;2.40;99.90
13848;DHT22;6994;49.752;6.094;2023-03-08T04:13:35;2.40;99.90
13848;DHT22;6994;49.752;6.094;2023-03-08T04:16:12;2.40;99.90
13848;DHT22;6994;49.752;6.094;2023-03-08T04:18:39;2.40;99.90
13848;DHT22;6994;49.752;6.094;2023-03-08T04:21:06;2.40;99.90
13848;DHT22;6994;49.752;6.094;2023-03-08T04:23:33;2.40;99.90
13848;DHT22;6994;49.752;6.094;2023-03-08T04:26:01;2.40;99.90
13848;DHT22;6994;49.752;6.094;2023-03-08T04:28:29;2.40;99.90
13848;DHT22;6994;49.752;6.094;2023-03-08T04:30:57;2.40;99.90
13848;DHT22;6994;49.752;6.094;2023-03-08T04:33:24;2.40;99.90
13848;DHT22;6994;49.752;6.094;2023-03-08T04:35:51;2.40;99.90
13848;DHT22;6994;49.752;6.094;2023-03-08T04:38:19;2.40;99.90
13848;DHT22;6994;49.752;6.094;2023-03-08T04:40:49;2.30;99.90
13848;DHT22;6994;49.752;6.094;2023-03-08T04:43:28;2.30;99.90
13848;DHT22;6994;49.752;6.094;2023-03-08T04:45:56;2.50;99.90
13848;DHT22;6994;49.752;6.094;2023-03-08T04:48:23;2.50;99.90
13848;DHT22;6994;49.752;6.094;2023-03-08T04:50:54;2.50;99.90
13848;DHT22;6994;49.752;6.094;2023-03-08T04:53:21;2.50;99.90
13848;DHT22;6994;49.752;6.094;2023-03-08T04:55:48;2.40;99.90
13848;DHT22;6994;49.752;6.094;2023-03-08T04:58:15;2.40;99.90
13848;DHT22;6994;49.752;6.094;2023-03-08T05:00:43;2.30;99.90
13848;DHT22;6994;49.752;6.094;2023-03-08T05:03:10;2.20;99.90
13848;DHT22;6994;49.752;6.094;2023-03-08T05:05:37;2.20;99.90
13848;DHT22;6994;49.752;6.094;2023-03-08T05:08:05;2.10;99.90
13848;DHT22;6994;49.752;6.094;2023-03-08T05:10:33;2.20;99.90
13848;DHT22;6994;49.752;6.094;2023-03-08T05:13:01;2.10;99.90
13848;DHT22;6994;49.752;6.094;2023-03-08T05:15:28;2.10;99.90
13848;DHT22;6994;49.752;6.094;2023-03-08T05:17:55;2.10;99.90
13848;DHT22;6994;49.752;6.094;2023-03-08T05:20:23;2.10;99.90
13848;DHT22;6994;49.752;6.094;2023-03-08T05:22:50;2.10;99.90
13848;DHT22;6994;49.752;6.094;2023-03-08T05:25:17;2.10;99.90
13848;DHT22;6994;49.752;6.094;2023-03-08T05:27:44;2.10;99.90
13848;DHT22;6994;49.752;6.094;2023-03-08T05:30:11;2.10;99.90
13848;DHT22;6994;49.752;6.094;2023-03-08T05:32:39;2.10;99.90
13848;DHT22;6994;49.752;6.094;2023-03-08T05:35:07;2.20;99.90
13848;DHT22;6994;49.752;6.094;2023-03-08T05:37:34;2.10;99.90
13848;DHT22;6994;49.752;6.094;2023-03-08T05:40:01;2.20;99.90
13848;DHT22;6994;49.752;6.094;2023-03-08T05:42:29;2.30;99.90
13848;DHT22;6994;49.752;6.094;2023-03-08T05:44:55;2.40;99.90
13848;DHT22;6994;49.752;6.094;2023-03-08T05:47:23;2.40;99.90
13848;DHT22;6994;49.752;6.094;2023-03-08T05:49:50;2.40;99.90
13848;DHT22;6994;49.752;6.094;2023-03-08T05:52:18;2.30;99.90
13848;DHT22;6994;49.752;6.094;2023-03-08T05:54:45;2.20;99.90
13848;DHT22;6994;49.752;6.094;2023-03-08T05:57:12;2.20;99.90
13848;DHT22;6994;49.752;6.094;2023-03-08T05:59:40;2.10;99.90
13848;DHT22;6994;49.752;6.094;2023-03-08T06:02:08;2.00;99.90
13848;DHT22;6994;49.752;6.094;2023-03-08T06:04:36;2.00;99.90
13848;DHT22;6994;49.752;6.094;2023-03-08T06:07:03;2.00;99.90
13848;DHT22;6994;49.752;6.094;2023-03-08T06:09:31;2.00;99.90
13848;DHT22;6994;49.752;6.094;2023-03-08T06:11:58;1.90;99.90
13848;DHT22;6994;49.752;6.094;2023-03-08T06:14:25;1.90;99.90
13848;DHT22;6994;49.752;6.094;2023-03-08T06:16:52;2.00;99.90
13848;DHT22;6994;49.752;6.094;2023-03-08T06:19:19;2.00;99.90
13848;DHT22;6994;49.752;6.094;2023-03-08T06:21:47;2.00;99.90
13848;DHT22;6994;49.752;6.094;2023-03-08T06:24:14;2.00;99.90
13848;DHT22;6994;49.752;6.094;2023-03-08T06:26:41;1.90;99.90
13848;DHT22;6994;49.752;6.094;2023-03-08T06:29:08;1.80;99.90
13848;DHT22;6994;49.752;6.094;2023-03-08T06:31:35;2.00;99.90
13848;DHT22;6994;49.752;6.094;2023-03-08T06:34:03;2.20;99.90
13848;DHT22;6994;49.752;6.094;2023-03-08T06:36:30;2.20;99.90
13848;DHT22;6994;49.752;6.094;2023-03-08T06:38:57;2.10;99.90
13848;DHT22;6994;49.752;6.094;2023-03-08T06:41:25;1.90;99.90
13848;DHT22;6994;49.752;6.094;2023-03-08T06:43:53;1.90;99.90
13848;DHT22;6994;49.752;6.094;2023-03-08T06:46:21;1.80;99.90
13848;DHT22;6994;49.752;6.094;2023-03-08T06:48:48;1.80;99.90
13848;DHT22;6994;49.752;6.094;2023-03-08T06:51:16;1.80;99.90
13848;DHT22;6994;49.752;6.094;2023-03-08T06:53:43;1.80;99.90
13848;DHT22;6994;49.752;6.094;2023-03-08T06:56:11;1.70;99.90
13848;DHT22;6994;49.752;6.094;2023-03-08T06:58:37;1.70;99.90
13848;DHT22;6994;49.752;6.094;2023-03-08T07:01:04;1.70;99.90
13848;DHT22;6994;49.752;6.094;2023-03-08T07:03:32;1.70;99.90
13848;DHT22;6994;49.752;6.094;2023-03-08T07:05:59;1.90;99.90
13848;DHT22;6994;49.752;6.094;2023-03-08T07:08:26;2.10;99.90
13848;DHT22;6994;49.752;6.094;2023-03-08T07:10:54;2.10;99.90
13848;DHT22;6994;49.752;6.094;2023-03-08T07:13:21;2.10;99.90
13848;DHT22;6994;49.752;6.094;2023-03-08T07:15:49;2.10;99.90
13848;DHT22;6994;49.752;6.094;2023-03-08T07:18:16;2.00;99.90
13848;DHT22;6994;49.752;6.094;2023-03-08T07:20:43;2.00;99.90
13848;DHT22;6994;49.752;6.094;2023-03-08T07:23:11;1.90;99.90
13848;DHT22;6994;49.752;6.094;2023-03-08T07:25:38;1.90;99.90
13848;DHT22;6994;49.752;6.094;2023-03-08T07:28:05;2.00;99.90
13848;DHT22;6994;49.752;6.094;2023-03-08T07:30:32;2.10;99.90
13848;DHT22;6994;49.752;6.094;2023-03-08T07:32:59;2.10;99.90
13848;DHT22;6994;49.752;6.094;2023-03-08T07:35:27;2.10;99.90
13848;DHT22;6994;49.752;6.094;2023-03-08T07:37:54;2.20;99.90
13848;DHT22;6994;49.752;6.094;2023-03-08T07:40:21;2.20;99.90
13848;DHT22;6994;49.752;6.094;2023-03-08T07:42:48;2.40;99.90
13848;DHT22;6994;49.752;6.094;2023-03-08T07:45:15;2.40;99.90
13848;DHT22;6994;49.752;6.094;2023-03-08T07:47:43;2.30;99.90
13848;DHT22;6994;49.752;6.094;2023-03-08T07:50:10;2.40;99.90
13848;DHT22;6994;49.752;6.094;2023-03-08T07:52:37;2.50;99.90
13848;DHT22;6994;49.752;6.094;2023-03-08T07:55:06;2.30;99.90
13848;DHT22;6994;49.752;6.094;2023-03-08T07:57:33;2.30;99.90
13848;DHT22;6994;49.752;6.094;2023-03-08T08:00:00;2.30;99.90
13848;DHT22;6994;49.752;6.094;2023-03-08T08:02:27;2.20;99.90
13848;DHT22;6994;49.752;6.094;2023-03-08T08:04:55;2.20;99.90
13848;DHT22;6994;49.752;6.094;2023-03-08T08:07:22;2.10;99.90
13848;DHT22;6994;49.752;6.094;2023-03-08T08:09:50;2.10;99.90
13848;DHT22;6994;49.752;6.094;2023-03-08T08:12:18;2.10;99.90
13848;DHT22;6994;49.752;6.094;2023-03-08T08:14:46;2.20;99.90
13848;DHT22;6994;49.752;6.094;2023-03-08T08:17:13;2.20;99.90
13848;DHT22;6994;49.752;6.094;2023-03-08T08:19:40;2.20;99.90
13848;DHT22;6994;49.752;6.094;2023-03-08T08:22:07;2.20;99.90
13848;DHT22;6994;49.752;6.094;2023-03-08T08:24:34;2.30;99.90
13848;DHT22;6994;49.752;6.094;2023-03-08T08:27:02;2.30;99.90
13848;DHT22;6994;49.752;6.094;2023-03-08T08:29:29;2.40;99.90
13848;DHT22;6994;49.752;6.094;2023-03-08T08:31:56;2.60;99.90
13848;DHT22;6994;49.752;6.094;2023-03-08T08:34:23;2.60;99.90
13848;DHT22;6994;49.752;6.094;2023-03-08T08:36:50;2.60;99.90
13848;DHT22;6994;49.752;6.094;2023-03-08T08:39:18;2.60;99.90
13848;DHT22;6994;49.752;6.094;2023-03-08T08:41:47;2.60;99.90
13848;DHT22;6994;49.752;6.094;2023-03-08T08:44:12;2.60;99.90
13848;DHT22;6994;49.752;6.094;2023-03-08T08:46:39;2.50;99.90
13848;DHT22;6994;49.752;6.094;2023-03-08T08:49:06;2.50;99.90
13848;DHT22;6994;49.752;6.094;2023-03-08T08:51:34;2.50;99.90
13848;DHT22;6994;49.752;6.094;2023-03-08T08:54:01;2.60;99.90
13848;DHT22;6994;49.752;6.094;2023-03-08T08:56:28;2.60;99.90
13848;DHT22;6994;49.752;6.094;2023-03-08T08:58:56;2.60;99.90
13848;DHT22;6994;49.752;6.094;2023-03-08T09:01:23;2.60;99.90
13848;DHT22;6994;49.752;6.094;2023-03-08T09:03:50;2.70;99.90
13848;DHT22;6994;49.752;6.094;2023-03-08T09:06:17;2.70;99.90
13848;DHT22;6994;49.752;6.094;2023-03-08T09:08:44;2.70;99.90
13848;DHT22;6994;49.752;6.094;2023-03-08T09:11:11;2.80;99.90
13848;DHT22;6994;49.752;6.094;2023-03-08T09:13:38;2.80;99.90
13848;DHT22;6994;49.752;6.094;2023-03-08T09:16:06;2.80;99.90
13848;DHT22;6994;49.752;6.094;2023-03-08T09:18:33;2.90;99.90
13848;DHT22;6994;49.752;6.094;2023-03-08T09:21:00;3.00;99.90
13848;DHT22;6994;49.752;6.094;2023-03-08T09:23:27;3.00;99.90
13848;DHT22;6994;49.752;6.094;2023-03-08T09:25:55;3.10;99.90
13848;DHT22;6994;49.752;6.094;2023-03-08T09:28:22;3.30;99.90
13848;DHT22;6994;49.752;6.094;2023-03-08T09:30:49;3.30;99.90
13848;DHT22;6994;49.752;6.094;2023-03-08T09:33:16;3.40;99.90
13848;DHT22;6994;49.752;6.094;2023-03-08T09:35:43;3.40;99.90
13848;DHT22;6994;49.752;6.094;2023-03-08T09:38:10;3.50;99.90
13848;DHT22;6994;49.752;6.094;2023-03-08T09:40:39;3.50;99.90
13848;DHT22;6994;49.752;6.094;2023-03-08T09:43:05;3.60;99.90
13848;DHT22;6994;49.752;6.094;2023-03-08T09:45:32;3.60;99.90
13848;DHT22;6994;49.752;6.094;2023-03-08T09:50:52;3.70;99.90
13848;DHT22;6994;49.752;6.094;2023-03-08T09:53:37;3.70;99.90
13848;DHT22;6994;49.752;6.094;2023-03-08T09:56:04;3.80;99.90
13848;DHT22;6994;49.752;6.094;2023-03-08T10:01:38;4.00;99.90
13848;DHT22;6994;49.752;6.094;2023-03-08T10:09:32;4.20;99.90
13848;DHT22;6994;49.752;6.094;2023-03-08T10:12:17;4.20;99.90
13848;DHT22;6994;49.752;6.094;2023-03-08T10:14:48;4.20;99.90
13848;DHT22;6994;49.752;6.094;2023-03-08T10:17:14;4.30;99.90
13848;DHT22;6994;49.752;6.094;2023-03-08T10:19:43;4.30;99.90
13848;DHT22;6994;49.752;6.094;2023-03-08T10:22:27;4.30;99.90
13848;DHT22;6994;49.752;6.094;2023-03-08T10:24:50;4.40;99.90
13848;DHT22;6994;49.752;6.094;2023-03-08T10:29:53;4.40;99.90
13848;DHT22;6994;49.752;6.094;2023-03-08T10:32:16;4.40;99.90
13848;DHT22;6994;49.752;6.094;2023-03-08T10:34:43;4.40;99.90
13848;DHT22;6994;49.752;6.094;2023-03-08T10:37:11;4.40;99.90
13848;DHT22;6994;49.752;6.094;2023-03-08T10:39:48;4.30;99.90
13848;DHT22;6994;49.752;6.094;2023-03-08T10:42:14;4.30;99.90
13848;DHT22;6994;49.752;6.094;2023-03-08T10:45:09;4.30;99.90
13848;DHT22;6994;49.752;6.094;2023-03-08T10:47:25;4.40;99.90
13848;DHT22;6994;49.752;6.094;2023-03-08T10:50:13;4.60;99.90
13848;DHT22;6994;49.752;6.094;2023-03-08T10:52:38;4.70;99.90
13848;DHT22;6994;49.752;6.094;2023-03-08T10:55:13;4.70;99.90
13848;DHT22;6994;49.752;6.094;2023-03-08T10:57:47;4.60;99.90
13848;DHT22;6994;49.752;6.094;2023-03-08T11:02:45;4.60;99.90
13848;DHT22;6994;49.752;6.094;2023-03-08T11:05:23;4.50;99.90
13848;DHT22;6994;49.752;6.094;2023-03-08T11:07:52;4.50;99.90
13848;DHT22;6994;49.752;6.094;2023-03-08T11:10:19;4.50;99.90
13848;DHT22;6994;49.752;6.094;2023-03-08T11:12:46;4.60;99.90
13848;DHT22;6994;49.752;6.094;2023-03-08T11:15:18;4.70;99.90
13848;DHT22;6994;49.752;6.094;2023-03-08T11:17:52;4.90;99.90
13848;DHT22;6994;49.752;6.094;2023-03-08T11:21:06;4.90;99.90
13848;DHT22;6994;49.752;6.094;2023-03-08T11:23:19;5.00;99.90
13848;DHT22;6994;49.752;6.094;2023-03-08T11:25:46;5.20;99.90
13848;DHT22;6994;49.752;6.094;2023-03-08T11:33:52;5.40;99.90
13848;DHT22;6994;49.752;6.094;2023-03-08T11:39:20;6.00;99.90
13848;DHT22;6994;49.752;6.094;2023-03-08T11:41:48;6.00;99.90
13848;DHT22;6994;49.752;6.094;2023-03-08T11:44:26;6.00;99.90
13848;DHT22;6994;49.752;6.094;2023-03-08T11:49:48;6.60;99.90
13848;DHT22;6994;49.752;6.094;2023-03-08T11:52:37;6.60;99.90
13848;DHT22;6994;49.752;6.094;2023-03-08T11:57:38;7.20;99.90
13848;DHT22;6994;49.752;6.094;2023-03-08T12:00:08;7.30;99.90
13848;DHT22;6994;49.752;6.094;2023-03-08T12:02:36;7.40;99.90
13848;DHT22;6994;49.752;6.094;2023-03-08T12:07:48;7.60;99.90
13848;DHT22;6994;49.752;6.094;2023-03-08T12:10:23;7.70;99.90
13848;DHT22;6994;49.752;6.094;2023-03-08T12:12:54;7.80;99.90
13848;DHT22;6994;49.752;6.094;2023-03-08T12:15:27;7.90;99.90
13848;DHT22;6994;49.752;6.094;2023-03-08T12:17:54;8.00;99.90
13848;DHT22;6994;49.752;6.094;2023-03-08T12:20:19;8.10;99.90
13848;DHT22;6994;49.752;6.094;2023-03-08T12:25:22;8.00;99.90
13848;DHT22;6994;49.752;6.094;2023-03-08T12:30:52;7.80;99.90
13848;DHT22;6994;49.752;6.094;2023-03-08T12:33:15;7.70;99.90
13848;DHT22;6994;49.752;6.094;2023-03-08T12:35:52;7.60;99.90
13848;DHT22;6994;49.752;6.094;2023-03-08T12:40:47;7.80;99.90
13848;DHT22;6994;49.752;6.094;2023-03-08T12:48:26;7.70;99.90
13848;DHT22;6994;49.752;6.094;2023-03-08T12:50:54;7.60;99.90
13848;DHT22;6994;49.752;6.094;2023-03-08T12:53:29;7.50;99.90
13848;DHT22;6994;49.752;6.094;2023-03-08T12:56:21;7.40;99.90
13848;DHT22;6994;49.752;6.094;2023-03-08T12:58:26;7.50;99.90
13848;DHT22;6994;49.752;6.094;2023-03-08T13:01:03;7.50;99.90
13848;DHT22;6994;49.752;6.094;2023-03-08T13:03:35;7.60;99.90
13848;DHT22;6994;49.752;6.094;2023-03-08T13:08:52;8.00;99.90
13848;DHT22;6994;49.752;6.094;2023-03-08T13:11:15;8.20;99.90
13848;DHT22;6994;49.752;6.094;2023-03-08T13:13:55;8.20;99.90
13848;DHT22;6994;49.752;6.094;2023-03-08T13:16:37;8.30;99.90
13848;DHT22;6994;49.752;6.094;2023-03-08T13:22:15;8.40;99.90
13848;DHT22;6994;49.752;6.094;2023-03-08T13:24:55;8.50;99.90
13848;DHT22;6994;49.752;6.094;2023-03-08T13:27:24;8.80;99.90
13848;DHT22;6994;49.752;6.094;2023-03-08T13:29:47;8.90;99.90
13848;DHT22;6994;49.752;6.094;2023-03-08T13:32:19;9.10;99.90
13848;DHT22;6994;49.752;6.094;2023-03-08T13:34:42;9.30;99.90
13848;DHT22;6994;49.752;6.094;2023-03-08T13:37:19;9.40;99.90
13848;DHT22;6994;49.752;6.094;2023-03-08T13:39:50;9.50;99.90
13848;DHT22;6994;49.752;6.094;2023-03-08T13:42:12;9.70;99.90
13848;DHT22;6994;49.752;6.094;2023-03-08T13:44:40;9.80;99.90
13848;DHT22;6994;49.752;6.094;2023-03-08T13:47:16;9.90;99.90
13848;DHT22;6994;49.752;6.094;2023-03-08T13:49:41;10.00;99.90
13848;DHT22;6994;49.752;6.094;2023-03-08T13:52:21;10.10;99.90
13848;DHT22;6994;49.752;6.094;2023-03-08T13:54:48;10.40;99.90
13848;DHT22;6994;49.752;6.094;2023-03-08T13:57:22;10.40;99.90
13848;DHT22;6994;49.752;6.094;2023-03-08T13:59:54;10.40;99.90
13848;DHT22;6994;49.752;6.094;2023-03-08T14:02:20;10.50;99.90
13848;DHT22;6994;49.752;6.094;2023-03-08T14:04:45;10.50;99.90
13848;DHT22;6994;49.752;6.094;2023-03-08T14:07:20;10.80;99.90
13848;DHT22;6994;49.752;6.094;2023-03-08T14:09:46;10.90;99.90
13848;DHT22;6994;49.752;6.094;2023-03-08T14:12:17;10.90;99.90
13848;DHT22;6994;49.752;6.094;2023-03-08T14:14:43;10.90;99.90
13848;DHT22;6994;49.752;6.094;2023-03-08T14:17:16;11.00;99.90
13848;DHT22;6994;49.752;6.094;2023-03-08T14:19:40;11.00;99.90
13848;DHT22;6994;49.752;6.094;2023-03-08T14:22:11;11.00;99.90
13848;DHT22;6994;49.752;6.094;2023-03-08T14:24:37;10.90;99.90
13848;DHT22;6994;49.752;6.094;2023-03-08T14:29:41;11.10;99.90
13848;DHT22;6994;49.752;6.094;2023-03-08T14:37:28;11.60;99.90
13848;DHT22;6994;49.752;6.094;2023-03-08T14:39:33;11.70;99.90
13848;DHT22;6994;49.752;6.094;2023-03-08T14:42:10;11.70;99.90
13848;DHT22;6994;49.752;6.094;2023-03-08T14:44:36;11.80;99.90
13848;DHT22;6994;49.752;6.094;2023-03-08T14:47:07;11.90;99.90
13848;DHT22;6994;49.752;6.094;2023-03-08T14:49:33;11.90;99.90
13848;DHT22;6994;49.752;6.094;2023-03-08T14:52:00;11.90;99.90
13848;DHT22;6994;49.752;6.094;2023-03-08T14:54:29;11.90;99.90
13848;DHT22;6994;49.752;6.094;2023-03-08T14:56:55;12.20;99.90
13848;DHT22;6994;49.752;6.094;2023-03-08T14:59:22;12.20;99.90
13848;DHT22;6994;49.752;6.094;2023-03-08T15:01:49;12.20;99.90
13848;DHT22;6994;49.752;6.094;2023-03-08T15:04:17;12.20;99.90
13848;DHT22;6994;49.752;6.094;2023-03-08T15:06:44;12.10;99.90
13848;DHT22;6994;49.752;6.094;2023-03-08T15:09:13;12.00;99.90
13848;DHT22;6994;49.752;6.094;2023-03-08T15:11:41;12.00;99.90
13848;DHT22;6994;49.752;6.094;2023-03-08T15:14:11;11.90;99.90
13848;DHT22;6994;49.752;6.094;2023-03-08T15:16:38;11.90;99.90
13848;DHT22;6994;49.752;6.094;2023-03-08T15:19:05;11.90;99.90
13848;DHT22;6994;49.752;6.094;2023-03-08T15:21:33;11.80;99.90
13848;DHT22;6994;49.752;6.094;2023-03-08T15:24:00;11.80;99.90
13848;DHT22;6994;49.752;6.094;2023-03-08T15:26:28;11.80;99.90
13848;DHT22;6994;49.752;6.094;2023-03-08T15:28:54;11.80;99.90
13848;DHT22;6994;49.752;6.094;2023-03-08T15:31:21;11.90;99.90
13848;DHT22;6994;49.752;6.094;2023-03-08T15:33:49;11.90;99.90
13848;DHT22;6994;49.752;6.094;2023-03-08T15:36:16;11.80;99.90
13848;DHT22;6994;49.752;6.094;2023-03-08T15:38:44;11.70;99.90
13848;DHT22;6994;49.752;6.094;2023-03-08T15:41:14;11.70;99.90
13848;DHT22;6994;49.752;6.094;2023-03-08T15:43:38;11.50;99.90
13848;DHT22;6994;49.752;6.094;2023-03-08T15:46:05;11.30;99.90
13848;DHT22;6994;49.752;6.094;2023-03-08T15:48:33;11.20;99.90
13848;DHT22;6994;49.752;6.094;2023-03-08T15:51:00;11.00;99.90
13848;DHT22;6994;49.752;6.094;2023-03-08T15:53:27;11.10;99.90
13848;DHT22;6994;49.752;6.094;2023-03-08T15:55:54;11.10;99.90
13848;DHT22;6994;49.752;6.094;2023-03-08T15:58:21;11.30;99.90
13848;DHT22;6994;49.752;6.094;2023-03-08T16:00:49;11.20;99.90
13848;DHT22;6994;49.752;6.094;2023-03-08T16:03:16;11.20;99.90
13848;DHT22;6994;49.752;6.094;2023-03-08T16:05:43;11.10;99.90
13848;DHT22;6994;49.752;6.094;2023-03-08T16:08:11;10.80;99.90
13848;DHT22;6994;49.752;6.094;2023-03-08T16:10:38;10.80;99.90
13848;DHT22;6994;49.752;6.094;2023-03-08T16:13:05;10.80;99.90
13848;DHT22;6994;49.752;6.094;2023-03-08T16:15:33;10.60;99.90
13848;DHT22;6994;49.752;6.094;2023-03-08T16:18:01;10.60;99.90
13848;DHT22;6994;49.752;6.094;2023-03-08T16:20:28;10.50;99.90
13848;DHT22;6994;49.752;6.094;2023-03-08T16:22:55;10.30;99.90
13848;DHT22;6994;49.752;6.094;2023-03-08T16:25:22;10.00;99.90
13848;DHT22;6994;49.752;6.094;2023-03-08T16:27:49;9.80;99.90
13848;DHT22;6994;49.752;6.094;2023-03-08T16:30:17;9.70;99.90
13848;DHT22;6994;49.752;6.094;2023-03-08T16:32:44;9.60;99.90
13848;DHT22;6994;49.752;6.094;2023-03-08T16:35:11;9.70;99.90
13848;DHT22;6994;49.752;6.094;2023-03-08T16:37:38;9.70;99.90
13848;DHT22;6994;49.752;6.094;2023-03-08T16:40:06;9.90;99.90
13848;DHT22;6994;49.752;6.094;2023-03-08T16:42:33;9.90;99.90
13848;DHT22;6994;49.752;6.094;2023-03-08T16:45:00;9.80;99.90
13848;DHT22;6994;49.752;6.094;2023-03-08T16:47:27;9.70;99.90
13848;DHT22;6994;49.752;6.094;2023-03-08T16:49:54;9.90;99.90
13848;DHT22;6994;49.752;6.094;2023-03-08T16:52:22;9.80;99.90
13848;DHT22;6994;49.752;6.094;2023-03-08T16:54:49;9.70;99.90
13848;DHT22;6994;49.752;6.094;2023-03-08T16:57:16;9.70;99.90
13848;DHT22;6994;49.752;6.094;2023-03-08T16:59:43;9.80;99.90
13848;DHT22;6994;49.752;6.094;2023-03-08T17:02:12;9.80;99.90
13848;DHT22;6994;49.752;6.094;2023-03-08T17:04:38;9.90;99.90
13848;DHT22;6994;49.752;6.094;2023-03-08T17:07:05;9.90;99.90
13848;DHT22;6994;49.752;6.094;2023-03-08T17:09:33;9.70;99.90
13848;DHT22;6994;49.752;6.094;2023-03-08T17:11:59;9.60;99.90
13848;DHT22;6994;49.752;6.094;2023-03-08T17:14:26;9.50;99.90